Bookmark and Share
Track history (hours):
 

Syosyun

Last reported at 2014-Apr-17 17:29 UTC. Time now 2014-Apr-18 18:21 UTC.
Position N 33°53' E 130°27'.

Length 74 m; draft 4.8 m.

Type: Cargo ship. MMSI: 431000201.

NotesDate/timePositionNaut miles runAvg speedWind from/ knotsBaromVisibWave heightAir tempDewpointWater temp
2014-Apr-17 17:29N 33°53' E 130°27'1112.3
2014-Apr-17 16:33N 33°45' E 130°16'  
2014-Apr-14 22:33N 33°44' E 130°15'  
2014-Apr-12 00:24N 33°50' E 130°23'1012.5
2014-Apr-11 23:33N 33°43' E 130°13'4 0.1
2014-Apr-10 13:33N 33°42' E 130°08'1111.1
2014-Apr-10 12:33N 33°49' E 130°19'453 9.6
2014-Apr-08 13:15N 34°51' E 139°22'811.4
2014-Apr-08 12:33N 34°52' E 139°32'2410.8
2014-Apr-08 10:21N 34°55' E 140°01'8 9.5
2014-Apr-08 09:29N 34°60' E 140°09'36 9.2
2014-Apr-08 05:33N 35°26' E 140°39'31 7.6
2014-Apr-08 01:33N 35°56' E 140°42'2 2.2
2014-Apr-08 00:30N 35°55' E 140°40'0 0.0
2014-Apr-07 23:33N 35°55' E 140°40'0 0.0
2014-Apr-07 22:24N 35°55' E 140°40'0 0.0
2014-Apr-07 21:33N 35°55' E 140°40'0 0.0
2014-Apr-07 20:33N 35°55' E 140°40'0 0.0
2014-Apr-07 19:32N 35°55' E 140°40'0 0.0
2014-Apr-07 17:30N 35°55' E 140°40'  

Dump ship's entire track history

sailing weather and tide predictions

Syosyun — JD2406 — position and weather